createdAt,value
2023-01-18T00:03:14.003Z,-0.30
2023-01-18T00:07:16.813Z,-0.30
2023-01-18T00:11:19.603Z,-0.30
2023-01-18T00:15:22.450Z,-0.30
2023-01-18T00:19:27.495Z,-0.30
2023-01-18T00:23:30.651Z,-0.40
2023-01-18T00:27:33.467Z,-0.40
2023-01-18T00:31:36.307Z,-0.30
2023-01-18T00:35:40.603Z,-0.40
2023-01-18T00:39:43.453Z,-0.40
2023-01-18T00:43:46.466Z,-0.40
2023-01-18T00:47:49.284Z,-0.40
2023-01-18T00:51:53.433Z,-0.40
2023-01-18T00:55:56.366Z,-0.40
2023-01-18T00:59:59.193Z,-0.40
2023-01-18T01:04:19.611Z,-0.50
2023-01-18T01:08:23.832Z,-0.50
2023-01-18T01:12:44.881Z,-0.50
2023-01-18T01:17:05.309Z,-0.50
2023-01-18T01:21:25.357Z,-0.60
2023-01-18T01:25:47.255Z,-0.60
2023-01-18T01:29:51.668Z,-0.70
2023-01-18T01:33:54.639Z,-0.70
2023-01-18T01:37:57.437Z,-0.70
2023-01-18T01:42:01.683Z,-0.80
2023-01-18T01:46:04.770Z,-0.80
2023-01-18T01:50:10.363Z,-0.80
2023-01-18T01:54:15.936Z,-0.90
2023-01-18T01:58:22.668Z,-0.90
2023-01-18T02:02:25.567Z,-0.90
2023-01-18T02:06:32.188Z,-0.90
2023-01-18T02:10:34.980Z,-1.00
2023-01-18T02:14:39.208Z,-1.00
2023-01-18T02:18:47.036Z,-1.00
2023-01-18T02:23:08.116Z,-1.00
2023-01-18T02:27:17.314Z,-1.00
2023-01-18T02:31:23.588Z,-1.10
2023-01-18T02:35:31.638Z,-1.10
2023-01-18T02:39:39.154Z,-1.10
2023-01-18T02:44:00.363Z,-1.00
2023-01-18T02:48:05.120Z,-1.00
2023-01-18T02:52:08.661Z,-1.00
2023-01-18T02:56:13.856Z,-1.00
2023-01-18T03:00:19.147Z,-1.00
2023-01-18T03:04:24.706Z,-1.00
2023-01-18T03:08:29.651Z,-1.00
2023-01-18T03:12:46.978Z,-0.90
2023-01-18T03:16:58.911Z,-0.90
2023-01-18T03:21:05.623Z,-0.90
2023-01-18T03:25:09.967Z,-0.90
2023-01-18T03:29:31.553Z,-0.90
2023-01-18T03:33:47.729Z,-0.90
2023-01-18T03:37:54.237Z,-0.90
2023-01-18T03:42:00.637Z,-0.90
2023-01-18T03:46:03.619Z,-0.90
2023-01-18T03:50:06.677Z,-0.90
2023-01-18T03:54:15.640Z,-0.90
2023-01-18T03:58:21.071Z,-0.90
2023-01-18T04:02:24.281Z,-0.90
2023-01-18T04:06:27.662Z,-0.90
2023-01-18T04:10:32.049Z,-0.90
2023-01-18T04:14:34.888Z,-0.90
2023-01-18T04:18:37.803Z,-0.90
2023-01-18T04:22:40.627Z,-0.90
2023-01-18T04:26:44.828Z,-0.90
2023-01-18T04:30:50.747Z,-1.00
2023-01-18T04:34:53.560Z,-0.90
2023-01-18T04:38:56.586Z,-1.00
2023-01-18T04:43:01.037Z,-1.00
2023-01-18T04:47:04.002Z,-1.00
2023-01-18T04:51:11.798Z,-1.00
2023-01-18T04:55:17.170Z,-1.10
2023-01-18T04:59:21.395Z,-1.10
2023-01-18T05:03:24.433Z,-1.10
2023-01-18T05:07:27.344Z,-1.10
2023-01-18T05:11:30.297Z,-1.20
2023-01-18T05:15:35.159Z,-1.20
2023-01-18T05:19:39.159Z,-1.20
2023-01-18T05:23:42.030Z,-1.20
2023-01-18T05:27:44.812Z,-1.30
2023-01-18T05:31:49.129Z,-1.20
2023-01-18T05:35:52.508Z,-1.20
2023-01-18T05:39:55.316Z,-1.20
2023-01-18T05:43:58.205Z,-1.30
2023-01-18T05:48:02.762Z,-1.30
2023-01-18T05:52:05.666Z,-1.30
2023-01-18T05:56:09.199Z,-1.30
2023-01-18T06:00:12.535Z,-1.30
2023-01-18T06:04:16.728Z,-1.40
2023-01-18T06:08:19.753Z,-1.40
2023-01-18T06:12:22.842Z,-1.40
2023-01-18T06:16:25.730Z,-1.40
2023-01-18T06:20:30.647Z,-1.40
2023-01-18T06:24:33.870Z,-1.40
2023-01-18T06:28:36.766Z,-1.40
2023-01-18T06:32:39.538Z,-1.40
2023-01-18T06:36:45.213Z,-1.40
2023-01-18T06:40:48.039Z,-1.40
2023-01-18T06:44:50.853Z,-1.40
2023-01-18T06:48:53.663Z,-1.40
2023-01-18T06:53:00.040Z,-1.40
2023-01-18T06:57:03.037Z,-1.40
2023-01-18T07:01:06.186Z,-1.40
2023-01-18T07:05:09.399Z,-1.40
2023-01-18T07:09:13.652Z,-1.40
2023-01-18T07:13:16.832Z,-1.40
2023-01-18T07:17:19.776Z,-1.40
2023-01-18T07:21:29.633Z,-1.50
2023-01-18T07:25:33.808Z,-1.40
2023-01-18T07:29:36.612Z,-1.40
2023-01-18T07:33:39.506Z,-1.50
2023-01-18T07:37:42.399Z,-1.40
2023-01-18T07:41:46.571Z,-1.40
2023-01-18T07:45:53.730Z,-1.40
2023-01-18T07:49:56.614Z,-1.40
2023-01-18T07:53:59.536Z,-1.40
2023-01-18T07:58:03.678Z,-1.40
2023-01-18T08:02:08.779Z,-1.30
2023-01-18T08:06:13.567Z,-1.30
2023-01-18T08:10:16.826Z,-1.30
2023-01-18T08:14:21.423Z,-1.20
2023-01-18T08:18:24.733Z,-1.20
2023-01-18T08:22:27.564Z,-1.20
2023-01-18T08:26:30.386Z,-1.10
2023-01-18T08:30:35.277Z,-1.10
2023-01-18T08:34:38.533Z,-1.00
2023-01-18T08:38:41.350Z,-1.00
2023-01-18T08:42:44.279Z,-1.00
2023-01-18T08:46:48.493Z,-0.90
2023-01-18T08:50:51.800Z,-0.80
2023-01-18T08:54:54.673Z,-0.80
2023-01-18T08:58:57.695Z,-0.70
2023-01-18T09:03:02.842Z,-0.60
2023-01-18T09:07:05.995Z,-0.50
2023-01-18T09:11:10.385Z,-0.40
2023-01-18T09:15:13.413Z,-0.30
2023-01-18T09:19:17.632Z,-0.20
2023-01-18T09:23:21.307Z,0.00
2023-01-18T09:27:24.280Z,0.10
2023-01-18T09:31:28.005Z,0.30
2023-01-18T09:35:33.115Z,0.40
2023-01-18T09:39:50.803Z,0.60
2023-01-18T09:43:56.017Z,0.70
2023-01-18T09:48:01.702Z,0.90
2023-01-18T09:52:10.750Z,1.10
2023-01-18T09:56:17.400Z,1.40
2023-01-18T10:00:22.651Z,1.70
2023-01-18T10:04:29.680Z,2.10
2023-01-18T10:08:34.462Z,2.50
2023-01-18T10:12:38.953Z,3.10
2023-01-18T10:16:41.894Z,3.60
2023-01-18T10:20:48.405Z,4.20
2023-01-18T10:24:57.503Z,4.60
2023-01-18T10:29:03.878Z,5.00
2023-01-18T10:33:15.126Z,5.20
2023-01-18T10:37:24.428Z,5.30
2023-01-18T10:41:31.735Z,5.30
2023-01-18T10:45:35.816Z,5.30
2023-01-18T10:49:39.710Z,5.10
2023-01-18T10:53:42.534Z,5.10
2023-01-18T10:57:48.016Z,5.00
2023-01-18T11:06:04.153Z,5.20
2023-01-18T11:10:09.710Z,5.30
2023-01-18T11:14:25.266Z,5.40
2023-01-18T11:18:28.088Z,5.60
2023-01-18T11:22:33.529Z,5.80
2023-01-18T11:26:36.455Z,5.90
2023-01-18T11:30:50.345Z,5.90
2023-01-18T11:34:54.177Z,6.00
2023-01-18T11:39:17.011Z,6.00
2023-01-18T11:43:22.529Z,6.00
2023-01-18T11:47:29.869Z,5.90
2023-01-18T11:51:34.886Z,5.90
2023-01-18T11:55:39.258Z,5.90
2023-01-18T11:59:43.055Z,5.90
2023-01-18T12:03:50.302Z,6.00
2023-01-18T12:07:59.014Z,6.10
2023-01-18T12:12:18.369Z,6.20
2023-01-18T12:16:23.091Z,6.40
2023-01-18T12:20:30.126Z,6.60
2023-01-18T12:24:38.178Z,7.00
2023-01-18T12:28:50.706Z,7.30
2023-01-18T12:33:02.230Z,7.70
2023-01-18T12:37:19.177Z,7.80
2023-01-18T12:41:36.143Z,7.90
2023-01-18T12:45:41.108Z,7.90
2023-01-18T12:49:47.709Z,8.00
2023-01-18T12:53:55.681Z,8.00
2023-01-18T12:58:00.413Z,8.10
2023-01-18T13:02:05.669Z,8.00
2023-01-18T13:06:10.280Z,7.80
2023-01-18T13:10:18.486Z,7.50
2023-01-18T13:14:25.486Z,7.10
2023-01-18T13:18:31.554Z,6.80
2023-01-18T13:22:38.689Z,6.50
2023-01-18T13:26:43.051Z,6.30
2023-01-18T13:30:55.294Z,6.00
2023-01-18T13:35:17.896Z,5.90
2023-01-18T13:39:21.998Z,5.60
2023-01-18T13:43:33.993Z,5.50
2023-01-18T13:47:45.784Z,5.30
2023-01-18T13:51:57.359Z,5.20
2023-01-18T13:56:34.177Z,5.00
2023-01-18T14:00:38.502Z,4.90
2023-01-18T14:04:41.477Z,4.80
2023-01-18T14:08:49.819Z,4.70
2023-01-18T14:12:53.458Z,4.70
2023-01-18T14:17:02.284Z,4.50
2023-01-18T14:21:09.855Z,4.40
2023-01-18T14:25:29.899Z,4.40
2023-01-18T14:29:34.826Z,4.30
2023-01-18T14:33:43.403Z,4.30
2023-01-18T14:37:46.845Z,4.20
2023-01-18T14:41:52.586Z,4.10
2023-01-18T14:45:57.719Z,4.10
2023-01-18T14:50:03.236Z,4.00
2023-01-18T14:54:07.087Z,3.90
2023-01-18T14:58:14.667Z,3.90
2023-01-18T15:02:18.982Z,3.80
2023-01-18T15:06:27.325Z,3.70
2023-01-18T15:10:30.178Z,3.70
2023-01-18T15:14:34.317Z,3.60
2023-01-18T15:18:37.340Z,3.60
2023-01-18T15:22:41.961Z,3.50
2023-01-18T15:26:46.105Z,3.40
2023-01-18T15:30:49.996Z,3.30
2023-01-18T15:34:54.303Z,3.30
2023-01-18T15:38:58.557Z,3.20
2023-01-18T15:43:06.096Z,3.10
2023-01-18T15:47:16.654Z,3.10
2023-01-18T15:51:22.426Z,3.00
2023-01-18T15:55:29.168Z,2.90
2023-01-18T15:59:32.005Z,2.80
2023-01-18T16:03:36.518Z,2.70
2023-01-18T16:07:41.976Z,2.60
2023-01-18T16:11:51.718Z,2.50
2023-01-18T16:16:18.618Z,2.50
2023-01-18T16:20:21.595Z,2.40
2023-01-18T16:24:27.771Z,2.30
2023-01-18T16:28:31.960Z,2.20
2023-01-18T16:32:35.631Z,2.00
2023-01-18T16:36:42.451Z,2.00
2023-01-18T16:40:46.729Z,1.90
2023-01-18T16:44:51.390Z,1.90
2023-01-18T16:48:54.219Z,1.80
2023-01-18T16:52:57.181Z,1.70
2023-01-18T16:56:59.987Z,1.70
2023-01-18T17:01:06.804Z,1.60
2023-01-18T17:05:10.605Z,1.60
2023-01-18T17:09:20.888Z,1.50
2023-01-18T17:17:45.434Z,1.40
2023-01-18T17:21:48.557Z,1.40
2023-01-18T17:25:51.406Z,1.40
2023-01-18T17:29:54.355Z,1.30
2023-01-18T17:33:58.583Z,1.30
2023-01-18T17:38:11.570Z,1.30
2023-01-18T17:42:29.689Z,1.30
2023-01-18T17:46:33.680Z,1.30
2023-01-18T17:50:39.610Z,1.20
2023-01-18T17:54:43.106Z,1.30
2023-01-18T17:58:46.883Z,1.30
2023-01-18T18:02:51.495Z,1.30
2023-01-18T18:06:58.670Z,1.30
2023-01-18T18:11:02.445Z,1.30
2023-01-18T18:15:06.987Z,1.30
2023-01-18T18:19:10.268Z,1.30
2023-01-18T18:23:14.467Z,1.30
2023-01-18T18:27:17.802Z,1.30
2023-01-18T18:31:20.873Z,1.30
2023-01-18T18:35:25.836Z,1.40
2023-01-18T18:39:30.631Z,1.40
2023-01-18T18:43:33.503Z,1.40
2023-01-18T18:47:36.503Z,1.40
2023-01-18T18:51:39.322Z,1.40
2023-01-18T18:55:44.035Z,1.40
2023-01-18T18:59:46.899Z,1.40
2023-01-18T19:03:50.721Z,1.40
2023-01-18T19:07:53.563Z,1.40
2023-01-18T19:11:58.770Z,1.30
2023-01-18T19:16:01.684Z,1.40
2023-01-18T19:20:04.640Z,1.30
2023-01-18T19:24:07.667Z,1.40
2023-01-18T19:28:11.898Z,1.40
2023-01-18T19:32:15.213Z,1.40
2023-01-18T19:36:18.047Z,1.40
2023-01-18T19:40:21.074Z,1.30
2023-01-18T19:44:25.939Z,1.30
2023-01-18T19:48:28.806Z,1.30
2023-01-18T19:52:32.229Z,1.30
2023-01-18T19:56:35.091Z,1.30
2023-01-18T20:00:41.257Z,1.30
2023-01-18T20:04:44.284Z,1.30
2023-01-18T20:08:47.235Z,1.30
2023-01-18T20:12:50.930Z,1.30
2023-01-18T20:16:55.161Z,1.30
2023-01-18T20:20:58.177Z,1.30
2023-01-18T20:25:01.000Z,1.40
2023-01-18T20:29:06.344Z,1.40
2023-01-18T20:33:10.593Z,1.50
2023-01-18T20:37:13.771Z,1.50
2023-01-18T20:41:16.918Z,1.50
2023-01-18T20:45:19.857Z,1.50
2023-01-18T20:49:33.143Z,1.50
2023-01-18T20:53:40.395Z,1.50
2023-01-18T20:57:48.112Z,1.50
2023-01-18T21:01:51.019Z,1.60
2023-01-18T21:05:55.745Z,1.60
2023-01-18T21:09:58.583Z,1.60
2023-01-18T21:14:03.160Z,1.60
2023-01-18T21:18:07.064Z,1.60
2023-01-18T21:22:11.588Z,1.60
2023-01-18T21:26:14.768Z,1.70
2023-01-18T21:30:17.731Z,1.70
2023-01-18T21:34:20.661Z,1.70
2023-01-18T21:38:25.710Z,1.70
2023-01-18T21:42:46.422Z,1.70
2023-01-18T21:46:51.024Z,1.70
2023-01-18T21:51:11.978Z,1.70
2023-01-18T21:55:16.412Z,1.70
2023-01-18T21:59:19.226Z,1.70
2023-01-18T22:03:22.959Z,1.80
2023-01-18T22:07:26.284Z,1.80
2023-01-18T22:11:30.530Z,1.80
2023-01-18T22:15:33.485Z,1.80
2023-01-18T22:19:38.692Z,1.80
2023-01-18T22:23:41.756Z,1.90
2023-01-18T22:27:46.169Z,1.90
2023-01-18T22:31:49.238Z,1.90
2023-01-18T22:35:57.642Z,1.90
2023-01-18T22:40:00.601Z,1.90
2023-01-18T22:44:07.689Z,1.90
2023-01-18T22:48:10.731Z,1.90
2023-01-18T22:52:13.962Z,1.90
2023-01-18T22:56:17.957Z,1.90
2023-01-18T23:00:22.625Z,1.90
2023-01-18T23:04:26.038Z,1.90
2023-01-18T23:08:42.534Z,1.90
2023-01-18T23:12:45.476Z,2.00
2023-01-18T23:17:07.145Z,1.90
2023-01-18T23:21:10.010Z,1.90
2023-01-18T23:25:12.895Z,2.00
2023-01-18T23:29:16.476Z,2.00
2023-01-18T23:33:20.703Z,2.00
2023-01-18T23:37:24.052Z,2.00
2023-01-18T23:41:44.544Z,2.00
2023-01-18T23:46:05.078Z,2.00
2023-01-18T23:50:27.710Z,2.00
2023-01-18T23:54:30.625Z,2.00
2023-01-18T23:58:33.476Z,2.00
